Tuesday, January 15, 2019, 7:15 PM EST
Back to Local

KOXC, Oxford, Waterbury-oxford Airport

Location: Oxford, CT, United States Lat: 41.483
Local Time: 7:15 PM EST ( 0:15 GMT) Lon: -73.133
Time Zone: US/Eastern Elev: 725 ft

Show me the last for .
Show Decoded

2019-01-15 18:51 METAR KOXC 152351Z 00000KT 10SM CLR M03/M07 A3009 RMK AO2 SLP214 T10331067 10006
                 21033 51007 =
2019-01-15 17:51 METAR KOXC 152251Z 00000KT 10SM CLR M02/M07 A3009 RMK AO2 SLP211 T10221067 =
2019-01-15 16:51 METAR KOXC 152151Z 32007KT 10SM CLR M02/M07 A3008 RMK AO2 SLP208 T10171067 =
2019-01-15 15:51 METAR KOXC 152051Z 33009KT 10SM CLR M01/M07 A3007 RMK AO2 SLP206 T10111067 55000
                 =
2019-01-15 14:51 METAR KOXC 151951Z 30008KT 10SM CLR 00/M07 A3007 RMK AO2 SLP204 T00001072 =
2019-01-15 13:51 METAR KOXC 151851Z 33009KT 10SM CLR 01/M08 A3007 RMK AO2 SLP203 T00061078 =
2019-01-15 12:51 METAR KOXC 151751Z 31006KT 10SM CLR M01/M07 A3007 RMK AO2 SLP205 T10061072 11006
                 21072 58016 =
2019-01-15 11:51 METAR KOXC 151651Z 33007KT 280V360 10SM CLR M02/M08 A3010 RMK AO2 SLP213
                 T10171078 =
2019-01-15 10:51 METAR KOXC 151551Z 34011G16KT 10SM CLR M02/M08 A3012 RMK AO2 SLP222 T10221083 =
2019-01-15 09:51 METAR KOXC 151451Z 35010KT 10SM CLR M03/M09 A3012 RMK AO2 SLP223 T10331094 53019
                 =
2019-01-15 08:51 METAR KOXC 151351Z 33005KT 10SM CLR M06/M11 A3010 RMK AO2 SLP218 T10561111 =
2019-01-15 07:51 METAR KOXC 151251Z 32006KT 10SM CLR M07/M13 A3008 RMK AO2 SLP209 T10721133 =
2019-01-15 06:51 METAR KOXC 151151Z 31004KT 10SM CLR M07/M13 A3006 RMK AO2 SLP204 T10721133 11061
                 21089 53004 =
2019-01-15 04:51 METAR KOXC 150951Z AUTO 00000KT 10SM CLR M08/M12 A3005 RMK AO2 SLP198 T10781122
                 FZRANO =
2019-01-15 03:51 METAR KOXC 150851Z AUTO 00000KT 10SM CLR M08/M12 A3005 RMK AO2 SLP199 T10831122
                 58004 FZRANO =
2019-01-15 02:51 METAR KOXC 150751Z AUTO 33005KT 10SM CLR M06/M12 A3006 RMK AO2 SLP202 T10611117
                 FZRANO =
2019-01-15 01:51 METAR KOXC 150651Z AUTO 30003KT 10SM CLR M07/M13 A3006 RMK AO2 SLP203 T10671128
                 FZRANO =
2019-01-15 00:51 METAR KOXC 150551Z AUTO 32004KT 10SM CLR M07/M13 A3006 RMK AO2 SLP204 T10671128
                 11039 21072 58010 FZRANO =
2019-01-14 23:51 METAR KOXC 150451Z AUTO 33005KT 10SM CLR M05/M13 A3008 RMK AO2 SLP208 T10501128
                 410061089 FZRANO =
2019-01-14 22:51 METAR KOXC 150351Z AUTO 33008KT 10SM CLR M04/M13 A3009 RMK AO2 SLP212 T10441133
                 FZRANO =
2019-01-14 21:51 METAR KOXC 150251Z AUTO 34008KT 10SM CLR M04/M14 A3009 RMK AO2 SLP215 T10441139
                 55003 FZRANO =
2019-01-14 20:51 METAR KOXC 150151Z 33005KT 10SM CLR M06/M13 A3009 RMK AO2 SLP215 T10561128 =
2019-01-14 19:51 METAR KOXC 150051Z 32005KT 10SM CLR M04/M12 A3009 RMK AO2 SLP213 T10441122 =

Support USWX by starting your Amazon purchase here.